Time;durP1;ratioP1;P1;durP2;ratioP2;P2;SDS_P1;SDS_P2;PMS_P1;PMS_P2;Temp;Humidity;BMP_temperature;BMP_pressure;BME280_temperature;BME280_humidity;BME280_pressure;Samples;Min_cycle;Max_cycle;Signal;HPM_P1;HPM_P2
2024/03/03 00:00:28;;;;;;;0.45;0.40;;;8.40;99.90;;;;;;4265205;27;20043;-56
2024/03/03 00:02:30;;;;;;;0.77;0.60;;;8.30;99.90;;;;;;4265972;27;20042;-57
2024/03/03 00:04:32;;;;;;;0.50;0.40;;;8.20;99.90;;;;;;4266551;27;20502;-56
2024/03/03 00:06:34;;;;;;;0.60;0.60;;;8.20;99.90;;;;;;4265310;27;20441;-56
2024/03/03 00:08:36;;;;;;;1.05;0.60;;;8.20;99.90;;;;;;4264885;27;20050;-55
2024/03/03 00:10:38;;;;;;;2.40;1.30;;;8.20;99.90;;;;;;4265282;27;20046;-57
2024/03/03 00:12:40;;;;;;;0.60;0.60;;;8.30;99.90;;;;;;4246900;28;20039;-57
2024/03/03 00:14:44;;;;;;;1.50;1.25;;;8.30;99.90;;;;;;4265400;27;20046;-56
2024/03/03 00:16:47;;;;;;;0.82;0.60;;;8.30;99.90;;;;;;4264937;27;20039;-56
2024/03/03 00:18:50;;;;;;;0.75;0.60;;;8.30;99.90;;;;;;4263903;27;20077;-56
2024/03/03 00:20:52;;;;;;;1.13;0.82;;;8.30;99.90;;;;;;4267286;27;20042;-57
2024/03/03 00:22:54;;;;;;;0.43;0.43;;;8.30;99.90;;;;;;4269145;27;20438;-56
2024/03/03 00:24:56;;;;;;;0.38;0.30;;;8.30;99.90;;;;;;4267562;27;20047;-55
2024/03/03 00:26:58;;;;;;;0.95;0.55;;;8.20;99.90;;;;;;4267965;27;20055;-56
2024/03/03 00:29:00;;;;;;;1.40;1.08;;;8.20;99.90;;;;;;4268051;27;20475;-57
2024/03/03 00:31:02;;;;;;;1.55;1.00;;;8.20;99.90;;;;;;4267878;27;20060;-55
2024/03/03 00:33:06;;;;;;;0.77;0.60;;;8.20;99.90;;;;;;4268143;27;20046;-55
2024/03/03 00:35:09;;;;;;;1.33;1.23;;;8.20;99.90;;;;;;4267707;27;20046;-56
2024/03/03 00:37:13;;;;;;;1.90;1.02;;;8.30;99.90;;;;;;4267580;27;20785;-56
2024/03/03 00:39:16;;;;;;;0.77;0.68;;;8.30;99.90;;;;;;4267792;27;20043;-56
2024/03/03 00:41:18;;;;;;;1.05;0.45;;;8.40;99.90;;;;;;4267649;27;20108;-57
2024/03/03 00:43:20;;;;;;;0.73;0.50;;;8.40;99.90;;;;;;4249580;27;20043;-61
2024/03/03 00:45:22;;;;;;;0.90;0.80;;;8.40;99.90;;;;;;4267618;27;20091;-57
2024/03/03 00:47:24;;;;;;;0.95;0.80;;;8.40;99.90;;;;;;4267587;27;20130;-56
2024/03/03 00:49:28;;;;;;;1.75;1.33;;;8.30;99.90;;;;;;4267543;27;20046;-57
2024/03/03 00:51:30;;;;;;;1.77;0.90;;;8.30;99.90;;;;;;4267406;27;20047;-56
2024/03/03 00:53:32;;;;;;;0.75;0.50;;;8.30;99.90;;;;;;4249053;27;20069;-57
2024/03/03 00:55:34;;;;;;;0.75;0.73;;;8.20;99.90;;;;;;4267700;27;20134;-56
2024/03/03 00:57:36;;;;;;;1.77;1.13;;;8.20;99.90;;;;;;4249259;27;20063;-56
2024/03/03 00:59:38;;;;;;;1.20;0.73;;;8.20;99.90;;;;;;4267570;27;20469;-57
2024/03/03 01:01:40;;;;;;;1.92;0.80;;;8.20;99.90;;;;;;4267304;27;20039;-57
2024/03/03 01:03:42;;;;;;;0.73;0.60;;;8.30;99.90;;;;;;4268071;27;20420;-57
2024/03/03 01:05:45;;;;;;;0.77;0.75;;;8.30;99.90;;;;;;4250632;27;20079;-55
2024/03/03 01:07:48;;;;;;;0.73;0.73;;;8.30;99.90;;;;;;4269706;27;20099;-58
2024/03/03 01:09:50;;;;;;;1.33;1.05;;;8.30;99.90;;;;;;4268762;27;20443;-56
2024/03/03 01:11:53;;;;;;;1.92;0.93;;;8.30;99.90;;;;;;4268374;27;20054;-56
2024/03/03 01:13:56;;;;;;;1.63;0.95;;;8.30;99.90;;;;;;4267624;27;20603;-56
2024/03/03 01:15:58;;;;;;;1.17;1.02;;;8.20;99.90;;;;;;4267720;27;20046;-57
2024/03/03 01:18:00;;;;;;;2.78;1.02;;;8.20;99.90;;;;;;4267183;27;20066;-57
2024/03/03 01:20:05;;;;;;;2.08;1.45;;;8.30;99.90;;;;;;4267105;27;20071;-57
2024/03/03 01:22:09;;;;;;;1.67;0.90;;;8.30;99.90;;;;;;4266819;27;20546;-57
2024/03/03 01:24:11;;;;;;;0.93;0.93;;;8.40;99.90;;;;;;4267197;27;20050;-56
2024/03/03 01:26:13;;;;;;;3.00;1.73;;;8.30;99.90;;;;;;4266874;27;20043;-56
2024/03/03 01:28:16;;;;;;;3.22;1.10;;;8.30;99.90;;;;;;4267263;27;20123;-57
2024/03/03 01:30:19;;;;;;;6.65;1.55;;;8.30;99.90;;;;;;4267097;27;20126;-56
2024/03/03 01:32:25;;;;;;;1.42;0.80;;;8.20;99.90;;;;;;4250108;27;20046;-56
2024/03/03 01:34:27;;;;;;;1.13;0.90;;;8.30;99.90;;;;;;4269349;27;20435;-56
2024/03/03 01:36:29;;;;;;;1.33;1.15;;;8.30;99.90;;;;;;4267243;27;20046;-55
2024/03/03 01:38:32;;;;;;;2.40;1.25;;;8.30;99.90;;;;;;4266762;27;20054;-56
2024/03/03 01:40:35;;;;;;;2.03;1.35;;;8.30;99.90;;;;;;4267127;27;20073;-57
2024/03/03 01:42:37;;;;;;;1.63;1.52;;;8.30;99.90;;;;;;4266665;27;20121;-57
2024/03/03 01:44:39;;;;;;;2.72;1.13;;;8.30;99.90;;;;;;4266553;27;20045;-56
2024/03/03 01:46:42;;;;;;;2.55;1.33;;;8.40;99.90;;;;;;4266504;27;20078;-56
2024/03/03 01:48:44;;;;;;;1.88;1.00;;;8.30;99.90;;;;;;4266478;27;20056;-57
2024/03/03 01:50:48;;;;;;;2.30;1.77;;;8.40;99.90;;;;;;4266321;27;20039;-57
2024/03/03 01:52:54;;;;;;;1.63;1.38;;;8.30;99.90;;;;;;4266883;27;20054;-55
2024/03/03 01:54:58;;;;;;;1.27;1.17;;;8.30;99.90;;;;;;4266539;27;20539;-55
2024/03/03 01:57:02;;;;;;;2.60;1.05;;;8.30;99.90;;;;;;4266420;27;20049;-56
2024/03/03 01:59:08;;;;;;;1.27;0.80;;;8.30;99.90;;;;;;4266302;27;20055;-56
2024/03/03 02:01:11;;;;;;;1.25;1.00;;;8.30;99.90;;;;;;4266541;27;20050;-57
2024/03/03 02:03:14;;;;;;;1.70;1.30;;;8.30;99.90;;;;;;4266218;27;20038;-59
2024/03/03 02:05:17;;;;;;;2.58;1.33;;;8.20;99.90;;;;;;4266285;27;20046;-57
2024/03/03 02:07:20;;;;;;;2.78;1.83;;;8.20;99.90;;;;;;4266526;27;20077;-56
2024/03/03 02:09:22;;;;;;;1.85;0.85;;;8.30;99.90;;;;;;4266637;27;20053;-57
2024/03/03 02:11:26;;;;;;;2.58;1.63;;;8.30;99.90;;;;;;4266498;27;20397;-57
2024/03/03 02:13:30;;;;;;;2.72;1.55;;;8.30;99.90;;;;;;4266311;27;20049;-57
2024/03/03 02:15:32;;;;;;;2.72;1.83;;;8.30;99.90;;;;;;4266221;27;20091;-55
2024/03/03 02:17:34;;;;;;;1.08;0.88;;;8.30;99.90;;;;;;4266712;27;20074;-59
2024/03/03 02:19:37;;;;;;;2.60;0.82;;;8.30;99.90;;;;;;4266748;27;20070;-54
2024/03/03 02:21:40;;;;;;;1.45;1.35;;;8.30;99.90;;;;;;4267704;27;20042;-57
2024/03/03 02:23:42;;;;;;;1.17;1.08;;;8.20;99.90;;;;;;4267765;27;20058;-57
2024/03/03 02:25:44;;;;;;;1.35;0.95;;;8.20;99.90;;;;;;4250199;27;20579;-56
2024/03/03 02:27:47;;;;;;;6.85;2.55;;;8.20;99.90;;;;;;4268586;27;20051;-56
2024/03/03 02:29:49;;;;;;;1.08;0.98;;;8.20;99.90;;;;;;4268175;27;20500;-60
2024/03/03 02:31:51;;;;;;;3.95;2.15;;;8.20;99.90;;;;;;4267063;27;20455;-55
2024/03/03 02:33:53;;;;;;;1.40;1.00;;;8.40;99.90;;;;;;4248273;27;20047;-58
2024/03/03 02:35:55;;;;;;;1.95;1.48;;;8.40;99.90;;;;;;4268240;27;20047;-58
2024/03/03 02:37:59;;;;;;;1.05;0.95;;;8.40;99.90;;;;;;4266231;27;20087;-57
2024/03/03 02:40:03;;;;;;;1.45;0.70;;;8.40;99.90;;;;;;4266312;27;20413;-55
2024/03/03 02:42:06;;;;;;;1.37;0.83;;;8.40;99.90;;;;;;4266107;27;20043;-56
2024/03/03 02:44:08;;;;;;;0.60;0.60;;;8.40;99.90;;;;;;4265396;27;20051;-57
2024/03/03 02:46:10;;;;;;;1.30;0.73;;;8.50;99.90;;;;;;4265687;27;20129;-56
2024/03/03 02:48:12;;;;;;;2.17;1.25;;;8.30;99.90;;;;;;4265625;27;20106;-56
2024/03/03 02:50:14;;;;;;;1.10;0.70;;;8.30;99.90;;;;;;4265511;27;20047;-56
2024/03/03 02:52:16;;;;;;;1.00;0.80;;;8.30;99.90;;;;;;4265782;27;20122;-57
2024/03/03 02:54:20;;;;;;;0.85;0.70;;;8.30;99.90;;;;;;4265565;27;20034;-57
2024/03/03 02:56:23;;;;;;;0.90;0.90;;;8.30;99.90;;;;;;4265496;27;20057;-56
2024/03/03 02:58:27;;;;;;;3.95;0.80;;;8.30;99.90;;;;;;4265759;27;20078;-56
2024/03/03 03:00:31;;;;;;;0.40;0.40;;;8.20;99.90;;;;;;4265512;27;20047;-56
2024/03/03 03:02:33;;;;;;;1.52;0.68;;;8.30;99.90;;;;;;4265366;27;20508;-56
2024/03/03 03:04:35;;;;;;;2.92;0.57;;;8.30;99.90;;;;;;4265484;27;20047;-57
2024/03/03 03:06:37;;;;;;;0.63;0.63;;;8.30;99.90;;;;;;4247072;27;20057;-61
2024/03/03 03:08:39;;;;;;;1.10;0.70;;;8.30;99.90;;;;;;4265395;27;20043;-57
2024/03/03 03:10:43;;;;;;;12.32;2.72;;;8.30;99.90;;;;;;4265596;27;20053;-56
2024/03/03 03:12:45;;;;;;;0.50;0.50;;;8.30;99.90;;;;;;4265562;27;20042;-57
2024/03/03 03:14:47;;;;;;;1.00;0.88;;;8.30;99.90;;;;;;4265643;27;20047;-58
2024/03/03 03:16:49;;;;;;;0.90;0.73;;;8.20;99.90;;;;;;4265327;27;20039;-56
2024/03/03 03:18:52;;;;;;;0.60;0.60;;;8.30;99.90;;;;;;4265482;27;20042;-60
2024/03/03 03:20:54;;;;;;;0.77;0.63;;;8.30;99.90;;;;;;4268130;27;20043;-57
2024/03/03 03:22:56;;;;;;;2.28;0.68;;;8.30;99.90;;;;;;4266771;27;20069;-57
2024/03/03 03:24:58;;;;;;;1.88;1.05;;;8.30;99.90;;;;;;4265840;27;20077;-57
2024/03/03 03:27:02;;;;;;;0.82;0.82;;;8.30;99.90;;;;;;4265529;27;20038;-57
2024/03/03 03:29:04;;;;;;;0.70;0.70;;;8.20;99.90;;;;;;4265338;27;20050;-56
2024/03/03 03:31:06;;;;;;;1.20;0.60;;;8.30;99.90;;;;;;4246884;28;20100;-56
2024/03/03 03:33:08;;;;;;;1.35;0.55;;;8.30;99.90;;;;;;4265594;27;20047;-56
2024/03/03 03:35:10;;;;;;;3.20;1.33;;;8.20;99.90;;;;;;4265167;27;20500;-57
2024/03/03 03:37:12;;;;;;;0.63;0.63;;;8.20;99.90;;;;;;4265551;27;20042;-57
2024/03/03 03:39:15;;;;;;;1.33;0.88;;;8.20;99.90;;;;;;4265193;27;20046;-57
2024/03/03 03:41:17;;;;;;;0.82;0.45;;;8.30;99.90;;;;;;4265376;27;20086;-56
2024/03/03 03:43:20;;;;;;;0.35;0.30;;;8.20;99.90;;;;;;4265487;27;20052;-56
2024/03/03 03:45:22;;;;;;;0.50;0.50;;;8.30;99.90;;;;;;4264863;27;20130;-55
2024/03/03 03:47:26;;;;;;;0.70;0.57;;;8.30;99.90;;;;;;4265443;27;20104;-56
2024/03/03 03:49:29;;;;;;;0.85;0.63;;;8.30;99.90;;;;;;4265073;27;20039;-55
2024/03/03 03:51:31;;;;;;;0.60;0.40;;;8.30;99.90;;;;;;4265260;27;20047;-56
2024/03/03 03:53:33;;;;;;;0.60;0.60;;;8.40;99.90;;;;;;4265257;27;20042;-56
2024/03/03 03:55:35;;;;;;;0.70;0.30;;;8.40;99.90;;;;;;4266776;27;20049;-56
2024/03/03 03:57:37;;;;;;;0.40;0.40;;;8.40;99.90;;;;;;4250422;27;20078;-59
2024/03/03 03:59:42;;;;;;;0.50;0.50;;;8.40;99.90;;;;;;4268438;27;20095;-57
2024/03/03 04:01:44;;;;;;;0.50;0.50;;;8.30;99.90;;;;;;4268203;27;20039;-55
2024/03/03 04:03:46;;;;;;;1.70;0.43;;;8.30;99.90;;;;;;4268377;27;20130;-58
2024/03/03 04:05:48;;;;;;;0.30;0.30;;;8.30;99.90;;;;;;4268413;27;20078;-56
2024/03/03 04:07:50;;;;;;;0.68;0.40;;;8.30;99.90;;;;;;4268240;27;20095;-57
2024/03/03 04:09:52;;;;;;;0.28;0.28;;;8.30;99.90;;;;;;4268156;27;20129;-56
2024/03/03 04:11:54;;;;;;;0.88;0.38;;;8.40;99.90;;;;;;4268142;27;20046;-56
2024/03/03 04:13:57;;;;;;;1.00;0.90;;;8.40;99.90;;;;;;4268054;27;20051;-56
2024/03/03 04:16:00;;;;;;;0.45;0.45;;;8.30;99.90;;;;;;4267709;27;20049;-57
2024/03/03 04:18:02;;;;;;;0.30;0.30;;;8.30;99.90;;;;;;4268122;27;20453;-57
2024/03/03 04:20:06;;;;;;;1.77;0.57;;;8.40;99.90;;;;;;4268172;27;20057;-57
2024/03/03 04:22:08;;;;;;;0.35;0.35;;;8.30;99.90;;;;;;4268077;27;20099;-56
2024/03/03 04:24:10;;;;;;;0.52;0.52;;;8.30;99.90;;;;;;4268343;27;20039;-56
2024/03/03 04:26:12;;;;;;;1.23;0.52;;;8.20;99.90;;;;;;4268818;27;20227;-55
2024/03/03 04:28:14;;;;;;;0.22;0.22;;;8.20;99.90;;;;;;4268753;27;20043;-56
2024/03/03 04:30:17;;;;;;;0.65;0.65;;;8.20;99.90;;;;;;4268038;27;20529;-56
2024/03/03 04:32:20;;;;;;;0.40;0.40;;;8.30;99.90;;;;;;4268512;27;20046;-56
2024/03/03 04:34:24;;;;;;;0.60;0.30;;;8.30;99.90;;;;;;4268254;27;20047;-56
2024/03/03 04:36:27;;;;;;;;;;;8.30;99.90;;;;;;4268650;27;20074;-55
2024/03/03 04:38:29;;;;;;;1.55;1.17;;;8.40;99.90;;;;;;4268144;27;20338;-56
2024/03/03 04:40:31;;;;;;;0.30;0.30;;;8.40;99.90;;;;;;4267785;27;20057;-56
2024/03/03 04:42:33;;;;;;;0.60;0.60;;;8.40;99.90;;;;;;4267739;27;20050;-56
2024/03/03 04:44:35;;;;;;;0.50;0.50;;;8.40;99.90;;;;;;4267390;27;20091;-57
2024/03/03 04:46:37;;;;;;;2.45;0.63;;;8.40;99.90;;;;;;4267995;27;20042;-56
2024/03/03 04:48:40;;;;;;;0.85;0.57;;;8.30;99.90;;;;;;4268850;27;20526;-59
2024/03/03 04:50:43;;;;;;;0.82;0.82;;;8.30;99.90;;;;;;4269620;27;20046;-57
2024/03/03 04:52:45;;;;;;;1.00;0.57;;;8.20;99.90;;;;;;4268321;27;20038;-56
2024/03/03 04:54:47;;;;;;;0.75;0.40;;;8.30;99.90;;;;;;4267735;27;20070;-56
2024/03/03 04:56:49;;;;;;;0.47;0.40;;;8.30;99.90;;;;;;4267742;27;20050;-56
2024/03/03 04:58:51;;;;;;;0.73;0.73;;;8.30;99.90;;;;;;4267010;27;20039;-57
2024/03/03 05:00:53;;;;;;;0.40;0.40;;;8.30;99.90;;;;;;4267460;27;20057;-56
2024/03/03 05:02:56;;;;;;;0.57;0.57;;;8.30;99.90;;;;;;4248963;27;20055;-57
2024/03/03 05:04:59;;;;;;;1.17;0.85;;;8.40;99.90;;;;;;4267788;27;20049;-57
2024/03/03 05:07:01;;;;;;;0.63;0.40;;;8.40;99.90;;;;;;4268617;27;20073;-55
2024/03/03 05:09:03;;;;;;;0.38;0.25;;;8.40;99.90;;;;;;4269819;27;20066;-57
2024/03/03 05:11:06;;;;;;;0.57;0.57;;;8.40;99.90;;;;;;4269155;27;20485;-57
2024/03/03 05:13:08;;;;;;;4.68;1.75;;;8.30;99.90;;;;;;4267153;27;20108;-57
2024/03/03 05:15:11;;;;;;;0.40;0.40;;;8.30;99.90;;;;;;4267007;27;20432;-57
2024/03/03 05:17:14;;;;;;;0.77;0.60;;;8.30;99.90;;;;;;4267077;27;20095;-56
2024/03/03 05:19:16;;;;;;;0.95;0.75;;;8.30;99.90;;;;;;4266752;27;20054;-57
2024/03/03 05:21:20;;;;;;;0.88;0.57;;;8.30;99.90;;;;;;4267067;27;20091;-57
2024/03/03 05:23:22;;;;;;;2.85;0.98;;;8.30;99.90;;;;;;4266917;27;20476;-56
2024/03/03 05:25:24;;;;;;;1.20;0.95;;;8.30;99.90;;;;;;4248524;27;20489;-56
2024/03/03 05:27:27;;;;;;;2.80;1.45;;;8.40;99.90;;;;;;4266564;27;20103;-57
2024/03/03 05:29:29;;;;;;;1.35;0.98;;;8.40;99.90;;;;;;4267003;27;20047;-56
2024/03/03 05:31:37;;;;;;;2.63;0.50;;;8.40;99.90;;;;;;4266858;27;20481;-56
2024/03/03 05:33:39;;;;;;;1.75;1.15;;;8.40;99.90;;;;;;4248404;27;20043;-56
2024/03/03 05:35:42;;;;;;;1.00;0.73;;;8.40;99.90;;;;;;4266917;27;20039;-56
2024/03/03 05:37:45;;;;;;;0.68;0.60;;;8.40;99.90;;;;;;4248543;27;20054;-56
2024/03/03 05:39:47;;;;;;;1.75;0.93;;;8.30;99.90;;;;;;4267237;27;20050;-57
2024/03/03 05:41:50;;;;;;;2.15;1.08;;;8.30;99.90;;;;;;4266562;27;20519;-57
2024/03/03 05:43:56;;;;;;;0.52;0.50;;;8.40;99.90;;;;;;4266755;27;20103;-56
2024/03/03 05:45:58;;;;;;;1.25;0.70;;;8.40;99.90;;;;;;4266696;27;20099;-56
2024/03/03 05:48:01;;;;;;;1.77;0.80;;;8.30;99.90;;;;;;4266500;27;20400;-57
2024/03/03 05:50:04;;;;;;;0.60;0.60;;;8.30;99.90;;;;;;4266502;27;20050;-56
2024/03/03 05:52:07;;;;;;;1.83;1.15;;;8.30;99.90;;;;;;4266633;27;20043;-56
2024/03/03 05:54:11;;;;;;;1.10;1.00;;;8.40;99.90;;;;;;4266600;27;20408;-57
2024/03/03 05:56:14;;;;;;;0.98;0.80;;;8.40;99.90;;;;;;4266073;27;20050;-56
2024/03/03 05:58:16;;;;;;;1.45;0.98;;;8.30;99.90;;;;;;4266425;27;20065;-57
2024/03/03 06:00:18;;;;;;;2.17;1.48;;;8.30;99.90;;;;;;4266680;27;20046;-57
2024/03/03 06:02:23;;;;;;;1.77;0.68;;;8.20;99.90;;;;;;4266400;27;20473;-57
2024/03/03 06:04:25;;;;;;;;;;;8.30;99.90;;;;;;4267097;27;20046;-56
2024/03/03 06:06:27;;;;;;;1.42;0.88;;;8.20;99.90;;;;;;4266656;27;20015;-57
2024/03/03 06:08:29;;;;;;;1.02;0.70;;;8.20;99.90;;;;;;4266637;27;20042;-56
2024/03/03 06:10:33;;;;;;;1.30;0.65;;;8.20;99.90;;;;;;4266105;27;20039;-57
2024/03/03 06:12:35;;;;;;;1.23;1.13;;;8.20;99.90;;;;;;4266124;27;20130;-57
2024/03/03 06:14:37;;;;;;;1.15;0.80;;;8.30;99.90;;;;;;4266405;27;20427;-57
2024/03/03 06:16:40;;;;;;;2.03;0.90;;;8.20;99.90;;;;;;4266190;27;20065;-56
2024/03/03 06:18:42;;;;;;;0.80;0.80;;;8.10;99.90;;;;;;4265067;27;20042;-56
2024/03/03 06:20:44;;;;;;;2.97;1.35;;;8.10;99.90;;;;;;4266078;27;20046;-56
2024/03/03 06:22:46;;;;;;;1.23;0.90;;;8.10;99.90;;;;;;4266088;27;20050;-57
2024/03/03 06:24:49;;;;;;;1.13;0.80;;;8.00;99.90;;;;;;4247363;27;20419;-56
2024/03/03 06:26:52;;;;;;;2.10;1.08;;;8.00;99.90;;;;;;4266122;27;20045;-57
2024/03/03 06:28:54;;;;;;;0.88;0.80;;;8.00;99.90;;;;;;4266046;27;20457;-56
2024/03/03 06:30:57;;;;;;;0.70;0.70;;;8.10;99.90;;;;;;4266013;27;20501;-57
2024/03/03 06:32:59;;;;;;;2.25;1.05;;;8.20;99.90;;;;;;4266067;27;20121;-57
2024/03/03 06:35:01;;;;;;;2.17;1.42;;;8.10;99.90;;;;;;4265876;27;20123;-56
2024/03/03 06:37:04;;;;;;;0.93;0.82;;;8.10;99.90;;;;;;4265764;27;20043;-58
2024/03/03 06:39:10;;;;;;;0.65;0.65;;;8.10;99.90;;;;;;4266069;27;20050;-57
2024/03/03 06:41:12;;;;;;;1.02;0.82;;;8.10;99.90;;;;;;4265541;27;20068;-58
2024/03/03 06:43:15;;;;;;;1.80;1.38;;;8.10;99.90;;;;;;4266018;27;20416;-56
2024/03/03 06:45:17;;;;;;;1.20;0.82;;;8.00;99.90;;;;;;4265694;27;20512;-56
2024/03/03 06:47:19;;;;;;;1.90;1.55;;;8.00;99.90;;;;;;4265911;27;20061;-57
2024/03/03 06:49:21;;;;;;;1.30;1.05;;;8.10;99.90;;;;;;4265967;27;20477;-55
2024/03/03 06:51:23;;;;;;;1.45;0.70;;;8.00;99.90;;;;;;4265660;27;20050;-57
2024/03/03 06:53:27;;;;;;;1.15;0.80;;;8.10;99.90;;;;;;4265964;27;20043;-57
2024/03/03 06:55:29;;;;;;;1.35;1.25;;;8.10;99.90;;;;;;4267879;27;20464;-57
2024/03/03 06:57:31;;;;;;;1.45;1.35;;;8.20;99.90;;;;;;4266975;27;20047;-55
2024/03/03 06:59:35;;;;;;;1.85;1.02;;;8.20;99.90;;;;;;4265767;27;20042;-56
2024/03/03 07:01:37;;;;;;;2.05;0.77;;;8.30;99.90;;;;;;4265632;27;20515;-56
2024/03/03 07:05:50;;;;;;;1.88;1.05;;;8.30;99.90;;;;;;4265681;27;20493;-57
2024/03/03 07:07:52;;;;;;;1.77;0.77;;;8.30;99.90;;;;;;4265590;27;20125;-56
2024/03/03 07:09:54;;;;;;;2.00;1.80;;;8.30;99.90;;;;;;4265330;27;20486;-57
2024/03/03 07:11:57;;;;;;;0.95;0.95;;;8.20;99.90;;;;;;4265458;27;20047;-57
2024/03/03 07:14:00;;;;;;;1.55;0.88;;;8.20;99.90;;;;;;4265543;27;20047;-60
2024/03/03 07:16:04;;;;;;;1.75;1.10;;;8.10;99.90;;;;;;4265668;27;20073;-56
2024/03/03 07:18:06;;;;;;;0.93;0.88;;;8.20;99.90;;;;;;4265568;27;20074;-56
2024/03/03 07:20:10;;;;;;;4.10;1.83;;;8.20;99.90;;;;;;4265179;27;20082;-55
2024/03/03 07:22:12;;;;;;;1.40;0.82;;;8.10;99.90;;;;;;4265496;27;20084;-56
2024/03/03 07:24:14;;;;;;;1.55;1.05;;;8.10;99.90;;;;;;4265025;27;20047;-57
2024/03/03 07:26:16;;;;;;;1.98;1.25;;;8.20;99.90;;;;;;4265509;27;20055;-56
2024/03/03 07:28:18;;;;;;;2.03;1.30;;;8.30;99.90;;;;;;4265351;27;20039;-57
2024/03/03 07:30:20;;;;;;;2.38;1.65;;;8.20;99.90;;;;;;4268464;27;20039;-60
2024/03/03 07:32:28;;;;;;;3.60;1.70;;;8.30;99.90;;;;;;4268686;27;20047;-56
2024/03/03 07:34:30;;;;;;;4.13;0.88;;;8.30;99.90;;;;;;4268996;27;20049;-56
2024/03/03 07:36:32;;;;;;;2.10;1.10;;;8.30;99.90;;;;;;4268852;27;20054;-55
2024/03/03 07:38:35;;;;;;;2.47;0.77;;;8.30;99.90;;;;;;4268604;27;20489;-56
2024/03/03 07:40:37;;;;;;;1.40;0.80;;;8.30;99.90;;;;;;4268836;27;20051;-56
2024/03/03 07:42:39;;;;;;;1.02;0.95;;;8.30;99.90;;;;;;4268727;27;20493;-56
2024/03/03 07:44:42;;;;;;;3.53;1.67;;;8.30;99.90;;;;;;4268740;27;20047;-57
2024/03/03 07:46:44;;;;;;;2.80;1.38;;;8.30;99.90;;;;;;4268937;27;20049;-58
2024/03/03 07:48:47;;;;;;;3.13;1.35;;;8.20;99.90;;;;;;4268867;27;20050;-56
2024/03/03 07:50:50;;;;;;;1.27;0.80;;;8.20;99.90;;;;;;4268684;27;20454;-57
2024/03/03 07:52:52;;;;;;;1.58;1.02;;;8.30;99.90;;;;;;4268548;27;20050;-58
2024/03/03 07:54:54;;;;;;;2.75;1.63;;;8.40;99.90;;;;;;4269402;27;20046;-57
2024/03/03 07:56:58;;;;;;;1.15;0.75;;;8.40;99.90;;;;;;4270058;27;20066;-55
2024/03/03 07:59:05;;;;;;;;;;;8.40;99.90;;;;;;4269526;27;20043;-57
2024/03/03 08:01:07;;;;;;;2.50;1.17;;;8.30;99.90;;;;;;4268103;27;19971;-56
2024/03/03 08:03:10;;;;;;;2.05;0.75;;;8.30;99.90;;;;;;4268408;27;20099;-56
2024/03/03 08:05:14;;;;;;;1.35;1.05;;;8.30;99.90;;;;;;4268638;27;20072;-56
2024/03/03 08:07:16;;;;;;;2.80;0.80;;;8.40;99.90;;;;;;4267955;27;20050;-56
2024/03/03 08:09:18;;;;;;;1.25;0.80;;;8.40;99.90;;;;;;4268450;27;20473;-56
2024/03/03 08:11:20;;;;;;;1.58;0.70;;;8.50;99.90;;;;;;4268394;27;20485;-56
2024/03/03 08:13:22;;;;;;;1.70;1.17;;;8.60;99.90;;;;;;4268423;27;20047;-57
2024/03/03 08:15:25;;;;;;;3.17;1.17;;;8.60;99.90;;;;;;4268253;27;20122;-56
2024/03/03 08:17:27;;;;;;;0.70;0.68;;;8.50;99.90;;;;;;4267973;27;20050;-57
2024/03/03 08:19:31;;;;;;;1.15;0.77;;;8.50;99.90;;;;;;4267850;27;20059;-56
2024/03/03 08:21:35;;;;;;;3.42;0.95;;;8.50;99.90;;;;;;4268078;27;20043;-56
2024/03/03 08:23:40;;;;;;;1.50;0.90;;;8.50;99.90;;;;;;4268581;27;20146;-56
2024/03/03 08:25:42;;;;;;;1.27;1.05;;;8.60;99.90;;;;;;4250401;27;20043;-58
2024/03/03 08:27:44;;;;;;;1.17;0.70;;;8.50;99.90;;;;;;4268202;27;20520;-56
2024/03/03 08:29:46;;;;;;;1.70;1.17;;;8.60;99.90;;;;;;4268002;27;20099;-56
2024/03/03 08:31:48;;;;;;;1.73;1.23;;;8.60;99.90;;;;;;4268096;27;20039;-57
2024/03/03 08:33:50;;;;;;;1.20;1.10;;;8.60;99.90;;;;;;4267779;27;20394;-57
2024/03/03 08:35:52;;;;;;;1.42;1.30;;;8.60;99.90;;;;;;4267624;27;20046;-56
2024/03/03 08:37:56;;;;;;;1.48;1.20;;;8.50;99.90;;;;;;4267949;27;20046;-57
2024/03/03 08:39:58;;;;;;;2.00;1.60;;;8.40;99.90;;;;;;4267778;27;20066;-57
2024/03/03 08:42:00;;;;;;;2.20;1.20;;;8.30;99.90;;;;;;4267176;27;20042;-56
2024/03/03 08:44:02;;;;;;;1.77;0.93;;;8.30;99.90;;;;;;4251027;27;20043;-66
2024/03/03 08:46:05;;;;;;;2.03;1.00;;;8.40;99.90;;;;;;4268914;27;20043;-56
2024/03/03 08:48:07;;;;;;;1.88;1.42;;;8.40;99.90;;;;;;4267872;27;20488;-57
2024/03/03 08:50:10;;;;;;;1.38;0.90;;;8.50;99.90;;;;;;4267408;27;20052;-56
2024/03/03 08:52:12;;;;;;;1.00;0.82;;;8.50;99.90;;;;;;4267735;27;20481;-57
2024/03/03 08:54:20;;;;;;;0.85;0.70;;;8.50;99.90;;;;;;4267386;27;20038;-56
2024/03/03 08:56:22;;;;;;;1.17;0.90;;;8.70;99.90;;;;;;4267422;27;20046;-57
2024/03/03 08:58:24;;;;;;;4.75;1.95;;;8.80;99.90;;;;;;4268013;27;20042;-56
2024/03/03 09:00:26;;;;;;;2.33;1.27;;;8.70;99.90;;;;;;4267450;27;20131;-59
2024/03/03 09:02:28;;;;;;;1.63;1.30;;;8.70;99.90;;;;;;4267490;27;20047;-57
2024/03/03 09:04:37;;;;;;;3.55;1.40;;;8.90;99.90;;;;;;4267175;27;20077;-57
2024/03/03 09:06:40;;;;;;;1.98;1.10;;;8.80;99.90;;;;;;4267314;27;20095;-56
2024/03/03 09:08:44;;;;;;;4.60;1.65;;;8.70;99.90;;;;;;4267178;27;20451;-57
2024/03/03 09:10:48;;;;;;;3.25;1.75;;;8.70;99.90;;;;;;4267381;27;20489;-57
2024/03/03 09:12:50;;;;;;;0.98;0.88;;;8.80;99.90;;;;;;4267585;27;20046;-61
2024/03/03 09:14:54;;;;;;;1.48;1.38;;;8.80;99.90;;;;;;4267355;27;20042;-57
2024/03/03 09:16:56;;;;;;;1.30;0.73;;;9.00;99.90;;;;;;4266886;27;20049;-56
2024/03/03 09:18:59;;;;;;;2.88;1.65;;;9.00;99.90;;;;;;4267017;27;20061;-56
2024/03/03 09:21:05;;;;;;;1.70;1.23;;;9.00;99.90;;;;;;4266943;27;20054;-57
2024/03/03 09:23:08;;;;;;;3.42;2.08;;;8.90;99.90;;;;;;4267570;27;20133;-56
2024/03/03 09:25:10;;;;;;;12.60;1.88;;;8.90;99.90;;;;;;4267530;27;20042;-56
2024/03/03 09:27:13;;;;;;;2.05;0.95;;;9.00;99.90;;;;;;4267067;27;20130;-56
2024/03/03 09:29:15;;;;;;;1.65;1.17;;;9.10;99.90;;;;;;4266941;27;20049;-56
2024/03/03 09:31:18;;;;;;;2.08;1.13;;;9.20;99.90;;;;;;4267021;27;20091;-57
2024/03/03 09:33:20;;;;;;;1.58;1.00;;;9.20;99.90;;;;;;4266532;27;20043;-56
2024/03/03 09:35:22;;;;;;;1.67;1.58;;;9.20;99.90;;;;;;4266979;27;20042;-56
2024/03/03 09:37:24;;;;;;;0.82;0.80;;;9.20;99.90;;;;;;4266999;27;20047;-57
2024/03/03 09:39:27;;;;;;;4.03;1.80;;;9.30;99.90;;;;;;4266874;27;20043;-57
2024/03/03 09:41:29;;;;;;;1.23;1.13;;;9.30;99.90;;;;;;4266796;27;20129;-56
2024/03/03 09:43:37;;;;;;;1.20;0.85;;;9.30;99.90;;;;;;4266551;27;20043;-56
2024/03/03 09:45:39;;;;;;;2.72;1.40;;;9.20;99.90;;;;;;4266909;27;20047;-56
2024/03/03 09:47:41;;;;;;;1.98;1.00;;;9.40;99.90;;;;;;4266660;27;20038;-56
2024/03/03 09:49:45;;;;;;;1.27;0.80;;;9.40;99.90;;;;;;4266233;27;20042;-56
2024/03/03 09:51:48;;;;;;;0.73;0.63;;;9.60;99.90;;;;;;4266572;27;20049;-56
2024/03/03 09:53:52;;;;;;;2.03;1.03;;;9.70;99.90;;;;;;4266777;27;20046;-62
2024/03/03 09:55:56;;;;;;;0.77;0.77;;;9.60;99.90;;;;;;4266632;27;20104;-56
2024/03/03 09:57:59;;;;;;;4.03;1.70;;;9.70;99.90;;;;;;4266789;27;20073;-57
2024/03/03 10:00:06;;;;;;;5.95;1.77;;;9.70;99.90;;;;;;4266506;27;20477;-58
2024/03/03 10:02:15;;;;;;;2.70;1.33;;;9.70;99.90;;;;;;4266561;27;20070;-57
2024/03/03 10:04:18;;;;;;;1.30;0.93;;;9.70;99.90;;;;;;4266504;27;20047;-57
2024/03/03 10:06:22;;;;;;;2.42;1.33;;;9.80;99.90;;;;;;4266442;27;20038;-57
2024/03/03 10:08:27;;;;;;;1.13;0.90;;;10.00;99.90;;;;;;4266469;27;20043;-56
2024/03/03 10:10:38;;;;;;;0.82;0.82;;;10.00;99.90;;;;;;4266314;27;20043;-57
2024/03/03 10:12:43;;;;;;;0.95;0.70;;;10.00;99.90;;;;;;4266391;27;20481;-57
2024/03/03 10:14:47;;;;;;;2.28;0.63;;;9.90;99.90;;;;;;4266072;27;20038;-57
2024/03/03 10:16:50;;;;;;;4.22;0.95;;;10.00;99.90;;;;;;4265762;27;20074;-57
2024/03/03 10:18:59;;;;;;;0.95;0.55;;;10.00;99.90;;;;;;4266008;27;20039;-58
2024/03/03 10:21:02;;;;;;;1.05;0.90;;;10.10;99.90;;;;;;4266015;27;20481;-58
2024/03/03 10:23:05;;;;;;;1.42;0.90;;;10.20;99.90;;;;;;4266431;27;20074;-56
2024/03/03 10:25:12;;;;;;;2.42;1.17;;;10.30;99.90;;;;;;4266342;27;20070;-57
2024/03/03 10:27:16;;;;;;;1.08;0.70;;;10.20;99.90;;;;;;4266536;27;20047;-57
2024/03/03 10:29:19;;;;;;;1.40;0.88;;;10.30;99.90;;;;;;4266692;27;20065;-56
2024/03/03 10:31:21;;;;;;;0.90;0.85;;;10.20;99.90;;;;;;4266555;27;20047;-59
2024/03/03 10:33:24;;;;;;;0.82;0.82;;;10.20;99.90;;;;;;4267359;27;20046;-56
2024/03/03 10:35:26;;;;;;;1.17;1.05;;;10.20;99.90;;;;;;4266841;27;20091;-56
2024/03/03 10:37:29;;;;;;;1.35;1.25;;;10.30;99.90;;;;;;4266751;27;20042;-61
2024/03/03 10:39:32;;;;;;;1.25;1.13;;;10.30;99.90;;;;;;4266864;27;20121;-57
2024/03/03 10:41:34;;;;;;;1.50;0.70;;;10.30;99.90;;;;;;4266948;27;20113;-60
2024/03/03 10:43:36;;;;;;;2.20;0.80;;;10.40;99.90;;;;;;4248546;27;20076;-64
2024/03/03 10:45:38;;;;;;;1.27;1.15;;;10.40;99.90;;;;;;4266839;27;20484;-61
2024/03/03 10:47:41;;;;;;;0.43;0.40;;;10.30;99.90;;;;;;4266801;27;20063;-66
2024/03/03 10:49:45;;;;;;;0.63;0.57;;;10.40;99.90;;;;;;4266880;27;20046;-58